sensor_id;sensor_type;location;lat;lon;timestamp;pressure;altitude;pressure_sealevel;temperature;humidity
36354;BME280;22383;51.114;13.666;2024-02-16T00:02:06;67966.59;;;7.05;100.00
36354;BME280;22383;51.114;13.666;2024-02-16T00:04:33;67957.56;;;6.96;100.00
36354;BME280;22383;51.114;13.666;2024-02-16T00:07:00;67951.91;;;6.91;100.00
36354;BME280;22383;51.114;13.666;2024-02-16T00:09:28;67947.56;;;6.90;100.00
36354;BME280;22383;51.114;13.666;2024-02-16T00:11:55;67949.81;;;6.85;100.00
36354;BME280;22383;51.114;13.666;2024-02-16T00:14:22;67944.34;;;6.82;100.00
36354;BME280;22383;51.114;13.666;2024-02-16T00:16:49;67939.44;;;6.80;100.00
36354;BME280;22383;51.114;13.666;2024-02-16T00:19:16;67935.50;;;6.76;100.00
36354;BME280;22383;51.114;13.666;2024-02-16T00:21:43;67933.22;;;6.74;100.00
36354;BME280;22383;51.114;13.666;2024-02-16T00:24:10;67938.34;;;6.79;100.00
36354;BME280;22383;51.114;13.666;2024-02-16T00:26:37;67937.78;;;6.78;100.00
36354;BME280;22383;51.114;13.666;2024-02-16T00:29:06;67934.94;;;6.76;100.00
36354;BME280;22383;51.114;13.666;2024-02-16T00:31:33;67935.31;;;6.74;100.00
36354;BME280;22383;51.114;13.666;2024-02-16T00:34:01;67926.66;;;6.71;100.00
36354;BME280;22383;51.114;13.666;2024-02-16T00:36:28;67912.16;;;6.60;100.00
36354;BME280;22383;51.114;13.666;2024-02-16T00:38:57;67921.00;;;6.66;100.00
36354;BME280;22383;51.114;13.666;2024-02-16T00:41:25;67910.84;;;6.56;100.00
36354;BME280;22383;51.114;13.666;2024-02-16T00:43:52;67919.50;;;6.59;100.00
36354;BME280;22383;51.114;13.666;2024-02-16T00:46:19;67923.84;;;6.68;100.00
36354;BME280;22383;51.114;13.666;2024-02-16T00:48:46;67921.75;;;6.61;100.00
36354;BME280;22383;51.114;13.666;2024-02-16T00:51:15;67920.81;;;6.63;100.00
36354;BME280;22383;51.114;13.666;2024-02-16T00:53:42;67920.03;;;6.60;100.00
36354;BME280;22383;51.114;13.666;2024-02-16T00:56:09;67925.31;;;6.67;100.00
36354;BME280;22383;51.114;13.666;2024-02-16T00:58:36;67921.38;;;6.63;100.00
36354;BME280;22383;51.114;13.666;2024-02-16T01:01:03;67907.81;;;6.51;100.00
36354;BME280;22383;51.114;13.666;2024-02-16T01:03:30;67908.19;;;6.49;100.00
36354;BME280;22383;51.114;13.666;2024-02-16T01:05:57;67910.63;;;6.54;100.00
36354;BME280;22383;51.114;13.666;2024-02-16T01:08:24;67907.44;;;6.53;100.00
36354;BME280;22383;51.114;13.666;2024-02-16T01:10:54;67910.06;;;6.53;100.00
36354;BME280;22383;51.114;13.666;2024-02-16T01:13:21;67908.38;;;6.52;100.00
36354;BME280;22383;51.114;13.666;2024-02-16T01:15:48;67916.47;;;6.54;100.00
36354;BME280;22383;51.114;13.666;2024-02-16T01:18:15;67912.31;;;6.55;100.00
36354;BME280;22383;51.114;13.666;2024-02-16T01:20:42;67914.78;;;6.60;100.00
36354;BME280;22383;51.114;13.666;2024-02-16T01:23:09;67927.41;;;6.67;100.00
36354;BME280;22383;51.114;13.666;2024-02-16T01:25:36;67925.13;;;6.65;100.00
36354;BME280;22383;51.114;13.666;2024-02-16T01:28:03;67911.75;;;6.55;100.00
36354;BME280;22383;51.114;13.666;2024-02-16T01:30:30;67924.56;;;6.64;100.00
36354;BME280;22383;51.114;13.666;2024-02-16T01:32:57;67923.47;;;6.70;100.00
36354;BME280;22383;51.114;13.666;2024-02-16T01:35:24;67937.56;;;6.76;100.00
36354;BME280;22383;51.114;13.666;2024-02-16T01:37:51;67949.06;;;6.89;100.00
36354;BME280;22383;51.114;13.666;2024-02-16T01:40:18;67964.13;;;7.00;100.00
36354;BME280;22383;51.114;13.666;2024-02-16T01:42:46;67979.59;;;7.16;100.00
36354;BME280;22383;51.114;13.666;2024-02-16T01:45:13;67978.09;;;7.17;100.00
36354;BME280;22383;51.114;13.666;2024-02-16T01:47:41;67983.34;;;7.17;100.00
36354;BME280;22383;51.114;13.666;2024-02-16T01:50:10;67981.09;;;7.15;100.00
36354;BME280;22383;51.114;13.666;2024-02-16T01:52:37;67991.84;;;7.25;100.00
36354;BME280;22383;51.114;13.666;2024-02-16T01:55:05;67999.38;;;7.34;100.00
36354;BME280;22383;51.114;13.666;2024-02-16T01:57:36;68005.78;;;7.43;100.00
36354;BME280;22383;51.114;13.666;2024-02-16T02:00:03;68019.56;;;7.50;100.00
36354;BME280;22383;51.114;13.666;2024-02-16T02:02:30;68020.28;;;7.53;100.00
36354;BME280;22383;51.114;13.666;2024-02-16T02:04:57;68021.63;;;7.57;100.00
36354;BME280;22383;51.114;13.666;2024-02-16T02:07:25;68029.34;;;7.62;100.00
36354;BME280;22383;51.114;13.666;2024-02-16T02:09:55;68032.75;;;7.65;100.00
36354;BME280;22383;51.114;13.666;2024-02-16T02:12:22;68036.72;;;7.68;100.00
36354;BME280;22383;51.114;13.666;2024-02-16T02:14:49;68028.78;;;7.61;100.00
36354;BME280;22383;51.114;13.666;2024-02-16T02:17:17;68024.84;;;7.57;100.00
36354;BME280;22383;51.114;13.666;2024-02-16T02:19:45;68017.47;;;7.51;100.00
36354;BME280;22383;51.114;13.666;2024-02-16T02:22:16;68011.66;;;7.50;100.00
36354;BME280;22383;51.114;13.666;2024-02-16T02:24:46;68019.56;;;7.50;100.00
36354;BME280;22383;51.114;13.666;2024-02-16T02:27:14;68018.41;;;7.49;100.00
36354;BME280;22383;51.114;13.666;2024-02-16T02:29:41;68019.34;;;7.48;100.00
36354;BME280;22383;51.114;13.666;2024-02-16T02:32:08;68008.81;;;7.41;100.00
36354;BME280;22383;51.114;13.666;2024-02-16T02:34:36;67999.94;;;7.35;100.00
36354;BME280;22383;51.114;13.666;2024-02-16T02:37:03;67995.41;;;7.31;100.00
36354;BME280;22383;51.114;13.666;2024-02-16T02:39:31;67986.38;;;7.23;100.00
36354;BME280;22383;51.114;13.666;2024-02-16T02:41:58;68004.84;;;7.37;100.00
36354;BME280;22383;51.114;13.666;2024-02-16T02:44:25;67998.63;;;7.31;100.00
36354;BME280;22383;51.114;13.666;2024-02-16T02:46:52;67991.84;;;7.25;100.00
36354;BME280;22383;51.114;13.666;2024-02-16T02:49:20;67985.81;;;7.22;100.00
36354;BME280;22383;51.114;13.666;2024-02-16T02:51:47;67987.13;;;7.26;100.00
36354;BME280;22383;51.114;13.666;2024-02-16T02:54:14;67992.03;;;7.28;100.00
36354;BME280;22383;51.114;13.666;2024-02-16T02:56:41;67994.66;;;7.28;100.00
36354;BME280;22383;51.114;13.666;2024-02-16T02:59:09;68000.88;;;7.33;100.00
36354;BME280;22383;51.114;13.666;2024-02-16T03:01:37;67999.38;;;7.34;100.00
36354;BME280;22383;51.114;13.666;2024-02-16T03:04:04;67995.06;;;7.33;100.00
36354;BME280;22383;51.114;13.666;2024-02-16T03:06:31;67992.22;;;7.30;100.00
36354;BME280;22383;51.114;13.666;2024-02-16T03:08:59;67993.75;;;7.29;100.00
36354;BME280;22383;51.114;13.666;2024-02-16T03:11:26;67993.16;;;7.29;100.00
36354;BME280;22383;51.114;13.666;2024-02-16T03:13:53;67990.34;;;7.26;100.00
36354;BME280;22383;51.114;13.666;2024-02-16T03:16:20;67997.13;;;7.32;100.00
36354;BME280;22383;51.114;13.666;2024-02-16T03:18:47;68000.91;;;7.41;100.00
36354;BME280;22383;51.114;13.666;2024-02-16T03:21:14;68007.88;;;7.42;100.00
36354;BME280;22383;51.114;13.666;2024-02-16T03:23:45;68004.09;;;7.41;100.00
36354;BME280;22383;51.114;13.666;2024-02-16T03:26:15;68008.97;;;7.43;100.00
36354;BME280;22383;51.114;13.666;2024-02-16T03:28:46;68021.81;;;7.52;100.00
36354;BME280;22383;51.114;13.666;2024-02-16T03:31:23;68024.25;;;7.57;100.00
36354;BME280;22383;51.114;13.666;2024-02-16T03:33:51;68017.09;;;7.53;100.00
36354;BME280;22383;51.114;13.666;2024-02-16T03:36:19;68019.75;;;7.53;100.00
36354;BME280;22383;51.114;13.666;2024-02-16T03:38:46;68022.94;;;7.53;100.00
36354;BME280;22383;51.114;13.666;2024-02-16T03:41:21;68022.38;;;7.53;100.00
36354;BME280;22383;51.114;13.666;2024-02-16T03:43:50;68014.09;;;7.48;100.00
36354;BME280;22383;51.114;13.666;2024-02-16T03:46:17;68011.25;;;7.45;100.00
36354;BME280;22383;51.114;13.666;2024-02-16T03:48:44;68016.34;;;7.50;100.00
36354;BME280;22383;51.114;13.666;2024-02-16T03:51:12;68012.94;;;7.47;100.00
36354;BME280;22383;51.114;13.666;2024-02-16T03:53:39;68017.66;;;7.46;100.00
36354;BME280;22383;51.114;13.666;2024-02-16T03:56:06;68012.00;;;7.41;100.00
36354;BME280;22383;51.114;13.666;2024-02-16T03:58:35;68005.03;;;7.39;100.00
36354;BME280;22383;51.114;13.666;2024-02-16T04:01:02;68009.16;;;7.38;100.00
36354;BME280;22383;51.114;13.666;2024-02-16T04:03:29;67999.56;;;7.37;100.00
36354;BME280;22383;51.114;13.666;2024-02-16T04:05:56;68006.16;;;7.41;100.00
36354;BME280;22383;51.114;13.666;2024-02-16T04:08:23;68009.94;;;7.42;100.00
36354;BME280;22383;51.114;13.666;2024-02-16T04:10:50;68012.38;;;7.46;100.00
36354;BME280;22383;51.114;13.666;2024-02-16T04:13:17;68007.88;;;7.42;100.00
36354;BME280;22383;51.114;13.666;2024-02-16T04:15:44;68007.09;;;7.39;100.00
36354;BME280;22383;51.114;13.666;2024-02-16T04:18:11;68003.69;;;7.36;100.00
36354;BME280;22383;51.114;13.666;2024-02-16T04:20:38;67992.78;;;7.31;100.00
36354;BME280;22383;51.114;13.666;2024-02-16T04:23:07;67996.56;;;7.32;100.00
36354;BME280;22383;51.114;13.666;2024-02-16T04:25:34;67994.28;;;7.30;100.00
36354;BME280;22383;51.114;13.666;2024-02-16T04:28:02;67989.19;;;7.25;100.00
36354;BME280;22383;51.114;13.666;2024-02-16T04:30:29;67985.81;;;7.22;100.00
36354;BME280;22383;51.114;13.666;2024-02-16T04:32:56;67980.72;;;7.17;100.00
36354;BME280;22383;51.114;13.666;2024-02-16T04:35:23;67979.59;;;7.16;100.00
36354;BME280;22383;51.114;13.666;2024-02-16T04:37:50;67982.44;;;7.19;100.00
36354;BME280;22383;51.114;13.666;2024-02-16T04:40:17;67982.63;;;7.22;100.00
36354;BME280;22383;51.114;13.666;2024-02-16T04:42:44;67983.91;;;7.18;100.00
36354;BME280;22383;51.114;13.666;2024-02-16T04:45:11;67971.50;;;7.14;100.00
36354;BME280;22383;51.114;13.666;2024-02-16T04:47:38;67971.13;;;7.09;100.00
36354;BME280;22383;51.114;13.666;2024-02-16T04:50:06;67975.25;;;7.08;100.00
36354;BME280;22383;51.114;13.666;2024-02-16T04:52:37;67968.84;;;7.07;100.00
36354;BME280;22383;51.114;13.666;2024-02-16T04:55:04;67974.31;;;7.09;100.00
36354;BME280;22383;51.114;13.666;2024-02-16T04:57:35;67965.25;;;7.01;100.00
36354;BME280;22383;51.114;13.666;2024-02-16T05:00:02;67959.81;;;6.98;100.00
36354;BME280;22383;51.114;13.666;2024-02-16T05:02:29;67960.94;;;6.99;100.00
36354;BME280;22383;51.114;13.666;2024-02-16T05:04:56;67960.94;;;6.99;100.00
36354;BME280;22383;51.114;13.666;2024-02-16T05:07:28;67957.19;;;6.98;100.00
36354;BME280;22383;51.114;13.666;2024-02-16T05:09:54;67959.03;;;6.95;100.00
36354;BME280;22383;51.114;13.666;2024-02-16T05:12:25;67952.81;;;6.90;100.00
36354;BME280;22383;51.114;13.666;2024-02-16T05:14:53;67948.88;;;6.86;100.00
36354;BME280;22383;51.114;13.666;2024-02-16T05:17:20;67954.53;;;6.91;100.00
36354;BME280;22383;51.114;13.666;2024-02-16T05:19:49;67956.78;;;6.93;100.00
36354;BME280;22383;51.114;13.666;2024-02-16T05:22:16;67950.19;;;6.90;100.00
36354;BME280;22383;51.114;13.666;2024-02-16T05:24:48;67956.78;;;6.93;100.00
36354;BME280;22383;51.114;13.666;2024-02-16T05:27:15;67951.91;;;6.91;100.00
36354;BME280;22383;51.114;13.666;2024-02-16T05:29:43;67958.84;;;6.93;100.00
36354;BME280;22383;51.114;13.666;2024-02-16T05:32:11;67959.25;;;6.98;100.00
36354;BME280;22383;51.114;13.666;2024-02-16T05:34:39;67951.91;;;6.91;100.00
36354;BME280;22383;51.114;13.666;2024-02-16T05:37:06;67951.69;;;6.89;100.00
36354;BME280;22383;51.114;13.666;2024-02-16T05:39:35;67946.03;;;6.84;100.00
36354;BME280;22383;51.114;13.666;2024-02-16T05:42:10;67940.59;;;6.81;100.00
36354;BME280;22383;51.114;13.666;2024-02-16T05:44:37;67945.47;;;6.83;100.00
36354;BME280;22383;51.114;13.666;2024-02-16T05:47:04;67936.81;;;6.80;100.00
36354;BME280;22383;51.114;13.666;2024-02-16T05:49:31;67937.41;;;6.80;100.00
36354;BME280;22383;51.114;13.666;2024-02-16T05:51:59;67938.53;;;6.81;100.00
36354;BME280;22383;51.114;13.666;2024-02-16T05:54:45;67936.47;;;6.82;100.00
36354;BME280;22383;51.114;13.666;2024-02-16T05:57:13;67936.06;;;6.77;100.00
36354;BME280;22383;51.114;13.666;2024-02-16T05:59:40;67940.03;;;6.80;100.00
36354;BME280;22383;51.114;13.666;2024-02-16T06:02:09;67943.78;;;6.81;100.00
36354;BME280;22383;51.114;13.666;2024-02-16T06:04:38;67950.94;;;6.86;100.00
36354;BME280;22383;51.114;13.666;2024-02-16T06:07:05;67943.97;;;6.84;100.00
36354;BME280;22383;51.114;13.666;2024-02-16T06:09:32;67943.78;;;6.81;100.00
36354;BME280;22383;51.114;13.666;2024-02-16T06:12:04;67940.78;;;6.84;100.00
36354;BME280;22383;51.114;13.666;2024-02-16T06:14:31;67943.78;;;6.81;100.00
36354;BME280;22383;51.114;13.666;2024-02-16T06:16:58;67941.72;;;6.82;100.00
36354;BME280;22383;51.114;13.666;2024-02-16T06:19:26;67942.44;;;6.78;100.00
36354;BME280;22383;51.114;13.666;2024-02-16T06:21:53;67936.06;;;6.77;100.00
36354;BME280;22383;51.114;13.666;2024-02-16T06:24:23;67936.78;;;6.73;100.00
36354;BME280;22383;51.114;13.666;2024-02-16T06:26:50;67926.28;;;6.73;100.00
36354;BME280;22383;51.114;13.666;2024-02-16T06:29:23;67937.56;;;6.76;100.00
36354;BME280;22383;51.114;13.666;2024-02-16T06:31:50;67937.78;;;6.78;100.00
36354;BME280;22383;51.114;13.666;2024-02-16T06:34:19;67935.50;;;6.76;100.00
36354;BME280;22383;51.114;13.666;2024-02-16T06:36:46;67938.69;;;6.77;100.00
36354;BME280;22383;51.114;13.666;2024-02-16T06:39:14;67933.22;;;6.74;100.00
36354;BME280;22383;51.114;13.666;2024-02-16T06:41:46;67930.06;;;6.74;100.00
36354;BME280;22383;51.114;13.666;2024-02-16T06:44:14;67935.31;;;6.74;100.00
36354;BME280;22383;51.114;13.666;2024-02-16T06:46:42;67939.63;;;6.75;100.00
36354;BME280;22383;51.114;13.666;2024-02-16T06:49:09;67929.84;;;6.71;100.00
36354;BME280;22383;51.114;13.666;2024-02-16T06:51:36;67934.75;;;6.73;100.00
36354;BME280;22383;51.114;13.666;2024-02-16T06:54:04;67934.16;;;6.73;100.00
36354;BME280;22383;51.114;13.666;2024-02-16T06:56:31;67937.78;;;6.78;100.00
36354;BME280;22383;51.114;13.666;2024-02-16T06:58:58;67930.41;;;6.72;100.00
36354;BME280;22383;51.114;13.666;2024-02-16T07:01:25;67933.22;;;6.74;100.00
36354;BME280;22383;51.114;13.666;2024-02-16T07:03:54;67943.06;;;6.86;100.00
36354;BME280;22383;51.114;13.666;2024-02-16T07:06:21;67937.41;;;6.80;100.00
36354;BME280;22383;51.114;13.666;2024-02-16T07:08:49;67943.41;;;6.84;100.00
36354;BME280;22383;51.114;13.666;2024-02-16T07:11:16;67951.69;;;6.89;100.00
36354;BME280;22383;51.114;13.666;2024-02-16T07:13:43;67951.53;;;6.93;100.00
36354;BME280;22383;51.114;13.666;2024-02-16T07:16:10;67961.28;;;6.97;100.00
36354;BME280;22383;51.114;13.666;2024-02-16T07:18:37;67955.28;;;6.94;100.00
36354;BME280;22383;51.114;13.666;2024-02-16T07:21:05;67963.19;;;7.02;100.00
36354;BME280;22383;51.114;13.666;2024-02-16T07:23:31;67983.91;;;7.18;100.00
36354;BME280;22383;51.114;13.666;2024-02-16T07:25:58;67994.84;;;7.30;100.00
36354;BME280;22383;51.114;13.666;2024-02-16T07:28:27;67990.72;;;7.31;100.00
36354;BME280;22383;51.114;13.666;2024-02-16T07:30:54;68005.97;;;7.38;100.00
36354;BME280;22383;51.114;13.666;2024-02-16T07:33:21;68006.94;;;7.44;100.00
36354;BME280;22383;51.114;13.666;2024-02-16T07:35:51;67999.56;;;7.37;100.00
36354;BME280;22383;51.114;13.666;2024-02-16T07:38:18;67998.25;;;7.33;100.00
36354;BME280;22383;51.114;13.666;2024-02-16T07:40:45;68011.25;;;7.45;100.00
36354;BME280;22383;51.114;13.666;2024-02-16T07:43:12;68028.78;;;7.61;100.00
36354;BME280;22383;51.114;13.666;2024-02-16T07:45:40;68027.47;;;7.57;100.00
36354;BME280;22383;51.114;13.666;2024-02-16T07:48:07;68038.97;;;7.70;100.00
36354;BME280;22383;51.114;13.666;2024-02-16T07:50:35;68025.97;;;7.58;100.00
36354;BME280;22383;51.114;13.666;2024-02-16T07:53:02;68030.13;;;7.65;100.00
36354;BME280;22383;51.114;13.666;2024-02-16T07:55:29;68015.78;;;7.49;100.00
36354;BME280;22383;51.114;13.666;2024-02-16T07:57:56;68014.09;;;7.48;100.00
36354;BME280;22383;51.114;13.666;2024-02-16T08:00:23;68020.13;;;7.51;100.00
36354;BME280;22383;51.114;13.666;2024-02-16T08:02:50;68022.38;;;7.53;100.00
36354;BME280;22383;51.114;13.666;2024-02-16T08:05:17;68018.41;;;7.49;100.00
36354;BME280;22383;51.114;13.666;2024-02-16T08:07:46;68015.56;;;7.47;100.00
36354;BME280;22383;51.114;13.666;2024-02-16T08:10:14;68020.88;;;7.54;100.00
36354;BME280;22383;51.114;13.666;2024-02-16T08:12:40;68015.22;;;7.49;100.00
36354;BME280;22383;51.114;13.666;2024-02-16T08:15:08;68016.53;;;7.52;100.00
36354;BME280;22383;51.114;13.666;2024-02-16T08:17:36;68022.56;;;7.55;100.00
36354;BME280;22383;51.114;13.666;2024-02-16T08:20:03;68027.09;;;7.60;100.00
36354;BME280;22383;51.114;13.666;2024-02-16T08:22:30;68039.91;;;7.69;100.00
36354;BME280;22383;51.114;13.666;2024-02-16T08:24:57;68046.13;;;7.74;100.00
36354;BME280;22383;51.114;13.666;2024-02-16T08:27:24;68049.16;;;7.80;100.00
36354;BME280;22383;51.114;13.666;2024-02-16T08:29:51;68054.63;;;7.82;100.00
36354;BME280;22383;51.114;13.666;2024-02-16T08:32:19;68027.69;;;7.82;100.00
36354;BME280;22383;51.114;13.666;2024-02-16T08:34:47;68047.66;;;7.81;100.00
36354;BME280;22383;51.114;13.666;2024-02-16T08:37:18;68052.34;;;7.80;100.00
36354;BME280;22383;51.114;13.666;2024-02-16T08:39:45;68057.44;;;7.85;100.00
36354;BME280;22383;51.114;13.666;2024-02-16T08:42:12;68065.34;;;7.92;100.00
36354;BME280;22383;51.114;13.666;2024-02-16T08:44:39;68072.34;;;8.01;100.00
36354;BME280;22383;51.114;13.666;2024-02-16T08:47:07;68081.59;;;8.11;100.00
36354;BME280;22383;51.114;13.666;2024-02-16T08:49:34;68103.47;;;8.29;100.00
36354;BME280;22383;51.114;13.666;2024-02-16T08:52:02;68112.50;;;8.37;100.00
36354;BME280;22383;51.114;13.666;2024-02-16T08:54:30;68116.72;;;8.43;100.00
36354;BME280;22383;51.114;13.666;2024-02-16T08:56:56;68119.91;;;8.44;100.00
36354;BME280;22383;51.114;13.666;2024-02-16T08:59:24;68137.81;;;8.58;100.00
36354;BME280;22383;51.114;13.666;2024-02-16T09:01:51;68149.88;;;8.71;100.00
36354;BME280;22383;51.114;13.666;2024-02-16T09:04:19;68151.97;;;8.78;100.00
36354;BME280;22383;51.114;13.666;2024-02-16T09:06:46;68168.75;;;8.83;100.00
36354;BME280;22383;51.114;13.666;2024-02-16T09:09:14;68143.47;;;8.63;100.00
36354;BME280;22383;51.114;13.666;2024-02-16T09:11:42;68145.56;;;8.69;100.00
36354;BME280;22383;51.114;13.666;2024-02-16T09:14:09;68144.59;;;8.64;100.00
36354;BME280;22383;51.114;13.666;2024-02-16T09:16:35;68144.22;;;8.66;100.00
36354;BME280;22383;51.114;13.666;2024-02-16T09:19:03;68145.38;;;8.67;100.00
36354;BME280;22383;51.114;13.666;2024-02-16T09:21:30;68147.44;;;8.66;100.00
36354;BME280;22383;51.114;13.666;2024-02-16T09:23:57;68123.88;;;8.69;100.00
36354;BME280;22383;51.114;13.666;2024-02-16T09:26:28;68153.28;;;8.74;100.00
36354;BME280;22383;51.114;13.666;2024-02-16T09:29:01;68151.59;;;8.73;100.00
36354;BME280;22383;51.114;13.666;2024-02-16T09:31:28;68159.31;;;8.77;100.00
36354;BME280;22383;51.114;13.666;2024-02-16T09:33:55;68167.63;;;8.82;100.00
36354;BME280;22383;51.114;13.666;2024-02-16T09:36:22;68168.41;;;8.85;100.00
36354;BME280;22383;51.114;13.666;2024-02-16T09:38:50;68174.81;;;8.94;100.00
36354;BME280;22383;51.114;13.666;2024-02-16T09:41:17;68183.50;;;9.04;100.00
36354;BME280;22383;51.114;13.666;2024-02-16T09:43:44;68192.34;;;9.09;100.00
36354;BME280;22383;51.114;13.666;2024-02-16T09:46:11;68184.44;;;9.02;100.00
36354;BME280;22383;51.114;13.666;2024-02-16T09:48:39;68189.16;;;9.02;100.00
36354;BME280;22383;51.114;13.666;2024-02-16T09:51:06;68203.69;;;9.20;100.00
36354;BME280;22383;51.114;13.666;2024-02-16T09:53:34;68211.81;;;9.30;100.00
36354;BME280;22383;51.114;13.666;2024-02-16T09:56:01;68212.53;;;9.25;100.00
36354;BME280;22383;51.114;13.666;2024-02-16T09:58:31;68212.19;;;9.27;100.00
36354;BME280;22383;51.114;13.666;2024-02-16T10:00:58;68217.47;;;9.35;100.00
36354;BME280;22383;51.114;13.666;2024-02-16T10:03:30;68195.22;;;9.34;100.00
36354;BME280;22383;51.114;13.666;2024-02-16T10:06:06;68223.50;;;9.38;100.00
36354;BME280;22383;51.114;13.666;2024-02-16T10:08:34;68225.78;;;9.40;100.00
36354;BME280;22383;51.114;13.666;2024-02-16T10:11:02;68211.81;;;9.30;100.00
36354;BME280;22383;51.114;13.666;2024-02-16T10:13:31;68227.09;;;9.43;100.00
36354;BME280;22383;51.114;13.666;2024-02-16T10:16:04;68230.88;;;9.44;100.00
36354;BME280;22383;51.114;13.666;2024-02-16T10:18:32;68231.63;;;9.40;100.00
36354;BME280;22383;51.114;13.666;2024-02-16T10:20:59;68231.25;;;9.42;100.00
36354;BME280;22383;51.114;13.666;2024-02-16T10:23:26;68235.97;;;9.42;100.00
36354;BME280;22383;51.114;13.666;2024-02-16T10:26:08;68233.13;;;9.46;100.00
36354;BME280;22383;51.114;13.666;2024-02-16T10:28:35;68235.41;;;9.49;100.00
36354;BME280;22383;51.114;13.666;2024-02-16T10:31:02;68233.88;;;9.50;100.00
36354;BME280;22383;51.114;13.666;2024-02-16T10:33:31;68254.09;;;9.65;100.00
36354;BME280;22383;51.114;13.666;2024-02-16T10:35:59;68276.56;;;9.83;100.00
36354;BME280;22383;51.114;13.666;2024-02-16T10:38:27;68304.34;;;10.09;100.00
36354;BME280;22383;51.114;13.666;2024-02-16T10:40:54;68309.44;;;10.13;100.00
36354;BME280;22383;51.114;13.666;2024-02-16T10:43:23;68308.84;;;10.13;100.00
36354;BME280;22383;51.114;13.666;2024-02-16T10:45:50;68268.81;;;10.00;100.00
36354;BME280;22383;51.114;13.666;2024-02-16T10:48:20;68292.06;;;10.00;100.00
36354;BME280;22383;51.114;13.666;2024-02-16T10:50:47;68296.59;;;10.04;100.00
36354;BME280;22383;51.114;13.666;2024-02-16T10:53:24;68302.25;;;10.09;100.00
36354;BME280;22383;51.114;13.666;2024-02-16T10:55:53;68309.44;;;10.13;100.00
36354;BME280;22383;51.114;13.666;2024-02-16T10:58:20;68381.06;;;10.81;100.00
36354;BME280;22383;51.114;13.666;2024-02-16T11:00:52;68430.03;;;11.27;100.00
36354;BME280;22383;51.114;13.666;2024-02-16T11:03:23;68413.78;;;11.15;100.00
36354;BME280;22383;51.114;13.666;2024-02-16T11:05:51;68390.88;;;10.92;100.00
36354;BME280;22383;51.114;13.666;2024-02-16T11:08:19;68359.91;;;10.66;100.00
36354;BME280;22383;51.114;13.666;2024-02-16T11:11:22;68367.47;;;10.68;100.00
36354;BME280;22383;51.114;13.666;2024-02-16T11:13:40;68357.63;;;10.57;100.00
36354;BME280;22383;51.114;13.666;2024-02-16T11:16:09;68357.81;;;10.59;100.00
36354;BME280;22383;51.114;13.666;2024-02-16T11:18:37;68351.78;;;10.56;100.00
36354;BME280;22383;51.114;13.666;2024-02-16T11:21:05;68360.09;;;10.62;100.00
36354;BME280;22383;51.114;13.666;2024-02-16T11:23:34;68338.00;;;10.42;100.00
36354;BME280;22383;51.114;13.666;2024-02-16T11:26:02;68323.22;;;10.28;100.00
36354;BME280;22383;51.114;13.666;2024-02-16T11:28:31;68304.16;;;10.13;100.00
36354;BME280;22383;51.114;13.666;2024-02-16T11:30:58;68297.34;;;10.07;100.00
36354;BME280;22383;51.114;13.666;2024-02-16T11:33:28;68301.50;;;10.06;100.00
36354;BME280;22383;51.114;13.666;2024-02-16T11:35:59;68294.31;;;10.02;100.00
36354;BME280;22383;51.114;13.666;2024-02-16T11:38:26;68296.59;;;10.04;100.00
36354;BME280;22383;51.114;13.666;2024-02-16T11:40:57;68279.56;;;9.89;100.00
36354;BME280;22383;51.114;13.666;2024-02-16T11:43:25;68273.94;;;9.83;100.00
36354;BME280;22383;51.114;13.666;2024-02-16T11:45:52;68278.84;;;9.86;100.00
36354;BME280;22383;51.114;13.666;2024-02-16T11:48:20;68289.59;;;9.95;100.00
36354;BME280;22383;51.114;13.666;2024-02-16T11:50:49;68287.31;;;9.93;100.00
36354;BME280;22383;51.114;13.666;2024-02-16T11:53:16;68280.34;;;9.92;100.00
36354;BME280;22383;51.114;13.666;2024-02-16T11:55:47;68294.88;;;10.02;100.00
36354;BME280;22383;51.114;13.666;2024-02-16T11:58:15;68307.34;;;10.14;100.00
36354;BME280;22383;51.114;13.666;2024-02-16T12:00:43;68321.91;;;10.25;100.00
36354;BME280;22383;51.114;13.666;2024-02-16T12:03:11;68321.34;;;10.24;100.00
36354;BME280;22383;51.114;13.666;2024-02-16T12:05:38;68322.66;;;10.28;100.00
36354;BME280;22383;51.114;13.666;2024-02-16T12:08:06;68326.28;;;10.33;100.00
36354;BME280;22383;51.114;13.666;2024-02-16T12:10:33;68342.53;;;10.46;100.00
36354;BME280;22383;51.114;13.666;2024-02-16T12:13:01;68355.34;;;10.55;100.00
36354;BME280;22383;51.114;13.666;2024-02-16T12:15:32;68369.16;;;10.70;100.00
36354;BME280;22383;51.114;13.666;2024-02-16T12:18:00;68420.19;;;11.16;100.00
36354;BME280;22383;51.114;13.666;2024-02-16T12:20:30;68426.81;;;11.20;100.00
36354;BME280;22383;51.114;13.666;2024-02-16T12:23:10;68422.06;;;11.20;100.00
36354;BME280;22383;51.114;13.666;2024-02-16T12:25:37;68438.16;;;11.30;100.00
36354;BME280;22383;51.114;13.666;2024-02-16T12:28:04;68408.84;;;11.27;100.00
36354;BME280;22383;51.114;13.666;2024-02-16T12:30:30;68411.13;;;11.29;100.00
36354;BME280;22383;51.114;13.666;2024-02-16T12:32:58;68421.50;;;11.20;100.00
36354;BME280;22383;51.114;13.666;2024-02-16T12:35:25;68411.13;;;11.08;100.00
36354;BME280;22383;51.114;13.666;2024-02-16T12:37:52;68425.09;;;11.18;100.00
36354;BME280;22383;51.114;13.666;2024-02-16T12:40:19;68429.28;;;11.24;100.00
36354;BME280;22383;51.114;13.666;2024-02-16T12:42:46;68419.44;;;11.13;100.00
36354;BME280;22383;51.114;13.666;2024-02-16T12:45:14;68401.28;;;10.96;100.00
36354;BME280;22383;51.114;13.666;2024-02-16T12:47:43;68406.78;;;11.06;100.00
36354;BME280;22383;51.114;13.666;2024-02-16T12:50:10;68419.06;;;11.15;100.00
36354;BME280;22383;51.114;13.666;2024-02-16T12:52:37;68444.59;;;11.38;100.00